Time;durP1;ratioP1;P1;durP2;ratioP2;P2;SDS_P1;SDS_P2;PMS_P1;PMS_P2;Temp;Humidity;BMP_temperature;BMP_pressure;BME280_temperature;BME280_humidity;BME280_pressure;Samples;Min_cycle;Max_cycle;Signal;HPM_P1;HPM_P2
2023/05/16 00:09:59;;;;;;;9.77;6.40;;;15.20;81.80;;;;;;20842920;28;20236;-78
2023/05/16 00:20:07;;;;;;;7.60;6.40;;;15.10;82.60;;;;;;20842430;28;20241;-78
2023/05/16 00:30:09;;;;;;;6.57;5.80;;;14.90;83.60;;;;;;20841247;28;20228;-77
2023/05/16 00:40:11;;;;;;;7.77;6.43;;;14.80;84.40;;;;;;20840675;28;20620;-77
2023/05/16 00:50:13;;;;;;;9.50;6.10;;;14.70;85.40;;;;;;20840258;28;20292;-75
2023/05/16 01:00:18;;;;;;;7.90;6.67;;;14.60;85.90;;;;;;20839326;28;20211;-76
2023/05/16 01:10:20;;;;;;;8.57;6.60;;;14.60;87.20;;;;;;20852791;28;20236;-76
2023/05/16 01:20:31;;;;;;;13.03;7.03;;;14.60;87.70;;;;;;20838434;28;20238;-75
2023/05/16 01:30:36;;;;;;;8.83;7.47;;;14.60;88.40;;;;;;20838067;28;20243;-78
2023/05/16 01:40:58;;;;;;;9.93;7.77;;;14.60;89.00;;;;;;20867408;28;20215;-77
2023/05/16 01:51:01;;;;;;;7.67;6.80;;;14.60;89.70;;;;;;20856070;28;20230;-77
2023/05/16 02:01:04;;;;;;;8.73;6.60;;;14.70;90.10;;;;;;20835908;28;20216;-80
2023/05/16 02:11:06;;;;;;;7.50;6.73;;;14.70;90.20;;;;;;20834315;28;20242;-77
2023/05/16 02:21:07;;;;;;;9.07;7.60;;;14.60;90.50;;;;;;20864225;28;20236;-78
2023/05/16 02:31:09;;;;;;;9.27;7.20;;;14.60;90.80;;;;;;20853217;28;20597;-77
2023/05/16 02:41:11;;;;;;;8.97;7.70;;;14.50;91.10;;;;;;20831583;28;20283;-76
2023/05/16 02:51:13;;;;;;;10.80;7.83;;;14.50;91.40;;;;;;20830746;28;20282;-76
2023/05/16 03:01:15;;;;;;;11.80;6.90;;;14.60;91.60;;;;;;20831979;28;20709;-77
2023/05/16 03:11:20;;;;;;;8.57;7.57;;;14.50;91.60;;;;;;20829984;28;20239;-76
2023/05/16 03:21:24;;;;;;;9.63;8.03;;;14.40;92.10;;;;;;20829539;28;20236;-76
2023/05/16 03:31:26;;;;;;;9.90;7.47;;;14.30;92.70;;;;;;20834011;28;20278;-80
2023/05/16 03:41:28;;;;;;;11.70;9.23;;;14.40;92.90;;;;;;20860478;28;20214;-78
2023/05/16 03:51:30;;;;;;;11.80;9.43;;;14.40;92.90;;;;;;20844521;28;20683;-76
2023/05/16 04:01:31;;;;;;;15.47;9.70;;;14.40;93.20;;;;;;20844401;28;20210;-79
2023/05/16 04:11:33;;;;;;;11.23;9.93;;;14.40;93.40;;;;;;20843188;28;20765;-76
2023/05/16 04:21:35;;;;;;;15.60;10.17;;;14.40;93.50;;;;;;20842363;28;20241;-79
2023/05/16 04:31:37;;;;;;;15.43;9.97;;;14.50;93.50;;;;;;20841853;28;20600;-79
2023/05/16 04:41:38;;;;;;;18.73;9.00;;;14.50;93.60;;;;;;20840691;28;20582;-80
2023/05/16 04:51:40;;;;;;;13.33;8.40;;;14.40;93.20;;;;;;20839942;28;20601;-79
2023/05/16 05:01:42;;;;;;;12.37;7.90;;;14.30;93.00;;;;;;20839817;28;20213;-76
2023/05/16 05:11:44;;;;;;;13.17;10.43;;;14.30;92.70;;;;;;20838926;28;20259;-80
2023/05/16 05:21:45;;;;;;;14.77;8.07;;;14.10;92.60;;;;;;20838190;28;20233;-79
2023/05/16 05:31:47;;;;;;;17.20;8.80;;;13.90;92.80;;;;;;20837327;28;20240;-79
2023/05/16 05:41:49;;;;;;;12.10;8.20;;;13.80;93.40;;;;;;20836114;28;20247;-77
2023/05/16 05:51:52;;;;;;;13.23;8.40;;;13.80;93.70;;;;;;20836564;28;20242;-74
2023/05/16 06:01:53;;;;;;;20.83;13.70;;;13.90;94.50;;;;;;20847175;28;20704;-76
2023/05/16 06:11:55;;;;;;;14.40;9.03;;;13.80;95.00;;;;;;20866541;28;20573;-78
2023/05/16 06:21:57;;;;;;;13.00;10.07;;;13.90;95.20;;;;;;20832947;28;20238;-77
2023/05/16 06:31:58;;;;;;;13.97;10.40;;;13.80;95.40;;;;;;20832040;28;20287;-76
2023/05/16 06:42:00;;;;;;;13.27;9.73;;;13.70;95.60;;;;;;20831450;28;20233;-76
2023/05/16 06:52:02;;;;;;;17.03;10.43;;;13.80;95.80;;;;;;20830822;28;20260;-76
2023/05/16 07:02:05;;;;;;;16.17;10.97;;;13.80;96.00;;;;;;20830584;28;20224;-77
2023/05/16 07:12:07;;;;;;;12.07;9.70;;;13.70;96.10;;;;;;20829658;28;20595;-77
2023/05/16 07:22:09;;;;;;;16.93;9.67;;;13.90;96.40;;;;;;20828827;28;20691;-77
2023/05/16 07:32:11;;;;;;;12.97;9.27;;;14.00;96.30;;;;;;20829132;28;20274;-77
2023/05/16 07:42:13;;;;;;;12.17;9.20;;;14.20;95.80;;;;;;20828623;28;20205;-76
2023/05/16 07:52:15;;;;;;;12.17;8.97;;;14.50;96.10;;;;;;20827866;28;20237;-76
2023/05/16 08:02:16;;;;;;;14.40;9.90;;;14.70;95.40;;;;;;20827954;28;20327;-76
2023/05/16 08:12:22;;;;;;;9.40;8.37;;;14.90;95.10;;;;;;20827034;28;20703;-76
2023/05/16 08:22:25;;;;;;;11.23;7.83;;;15.20;94.30;;;;;;20838125;28;20299;-77
2023/05/16 08:32:26;;;;;;;12.47;8.63;;;15.50;93.60;;;;;;20841323;28;20282;-76
2023/05/16 08:42:28;;;;;;;14.10;7.57;;;15.90;92.00;;;;;;20840482;28;20208;-78
2023/05/16 08:52:32;;;;;;;10.90;7.93;;;15.90;92.20;;;;;;20839782;28;20271;-79
2023/05/16 09:02:34;;;;;;;11.13;7.50;;;15.60;91.90;;;;;;20854405;28;20209;-77
2023/05/16 09:12:36;;;;;;;9.03;7.00;;;15.30;91.90;;;;;;20837861;28;20654;-76
2023/05/16 09:22:39;;;;;;;10.20;6.73;;;15.50;91.50;;;;;;20837465;28;20600;-76
2023/05/16 09:32:44;;;;;;;8.10;6.03;;;15.70;90.90;;;;;;20836055;28;20239;-78
2023/05/16 09:42:46;;;;;;;11.00;7.07;;;15.90;90.20;;;;;;20838428;28;20626;-76
2023/05/16 09:52:50;;;;;;;9.27;5.37;;;15.80;90.10;;;;;;20855107;28;20228;-74
2023/05/16 10:02:55;;;;;;;13.43;5.00;;;15.90;89.20;;;;;;20855767;28;20240;-78
2023/05/16 10:13:00;;;;;;;15.13;12.43;;;15.70;87.40;;;;;;20834304;28;20602;-77
2023/05/16 10:23:03;;;;;;;7.90;5.00;;;15.80;87.10;;;;;;20858368;28;20661;-79
2023/05/16 10:33:05;;;;;;;14.47;4.17;;;15.80;87.30;;;;;;20837021;28;20783;-78
2023/05/16 10:43:08;;;;;;;4.40;3.80;;;15.90;86.90;;;;;;20831174;28;20205;-78
2023/05/16 10:53:19;;;;;;;5.23;2.60;;;15.50;86.30;;;;;;20830677;28;20418;-77
2023/05/16 11:03:27;;;;;;;2.33;1.80;;;15.70;86.50;;;;;;20830631;28;20231;-78
2023/05/16 11:13:32;;;;;;;3.10;1.50;;;15.60;85.40;;;;;;20829741;28;20243;-77
2023/05/16 11:23:33;;;;;;;3.53;1.60;;;15.20;85.00;;;;;;20829728;28;20325;-76
2023/05/16 11:33:38;;;;;;;1.63;1.30;;;15.00;85.20;;;;;;20830450;28;20241;-80
2023/05/16 11:43:42;;;;;;;5.37;4.27;;;14.90;85.50;;;;;;20828590;28;20219;-71
2023/05/16 11:53:45;;;;;;;3.23;1.57;;;15.00;85.10;;;;;;20843282;28;20608;-74
2023/05/16 12:03:56;;;;;;;2.57;1.50;;;14.90;84.30;;;;;;20885084;28;20204;-72
2023/05/16 12:13:59;;;;;;;3.37;1.70;;;14.90;84.60;;;;;;20859739;28;20247;-72
2023/05/16 12:24:01;;;;;;;4.33;1.63;;;15.80;83.50;;;;;;20878627;28;20285;-77
2023/05/16 12:34:03;;;;;;;2.33;1.60;;;15.80;84.00;;;;;;20864453;28;20715;-75
2023/05/16 12:44:16;;;;;;;2.83;2.00;;;16.00;82.20;;;;;;20856362;28;20208;-76
2023/05/16 12:54:19;;;;;;;2.83;1.43;;;16.20;80.60;;;;;;20839552;28;20718;-75
2023/05/16 13:04:22;;;;;;;5.60;1.73;;;16.50;79.20;;;;;;20915505;28;20220;-77
2023/05/16 13:14:24;;;;;;;3.37;1.90;;;16.30;78.10;;;;;;20920068;28;20267;-75
2023/05/16 13:24:25;;;;;;;8.07;2.10;;;16.20;77.30;;;;;;20921349;28;20298;-77
2023/05/16 13:34:27;;;;;;;4.63;2.10;;;16.40;76.80;;;;;;20942463;28;20779;-76
2023/05/16 13:44:29;;;;;;;4.67;2.37;;;16.80;74.50;;;;;;20943164;28;20222;-75
2023/05/16 13:54:30;;;;;;;7.27;2.00;;;16.90;73.00;;;;;;20917900;28;20259;-73
2023/05/16 14:04:32;;;;;;;5.57;2.00;;;17.70;71.30;;;;;;20917483;28;20211;-76
2023/05/16 14:25:57;;;;;;;10.00;2.30;;;16.70;67.00;;;;;;20832733;28;20271;-74
2023/05/16 14:35:59;;;;;;;6.23;1.73;;;16.70;65.80;;;;;;20832198;28;20301;-79
2023/05/16 14:46:04;;;;;;;4.40;1.70;;;16.80;63.60;;;;;;20868957;28;20322;-78
2023/05/16 14:56:06;;;;;;;7.03;1.60;;;16.60;61.80;;;;;;20912694;28;20667;-69
2023/05/16 15:06:08;;;;;;;5.20;1.60;;;16.70;59.60;;;;;;20911883;28;20287;-70
2023/05/16 15:16:12;;;;;;;5.37;1.50;;;17.20;59.70;;;;;;20911633;28;20257;-75
2023/05/16 15:26:14;;;;;;;6.57;1.47;;;17.90;57.80;;;;;;20910842;28;20230;-70
2023/05/16 15:36:15;;;;;;;4.73;1.37;;;17.60;53.70;;;;;;20864038;28;20697;-70
2023/05/16 15:46:17;;;;;;;7.50;1.53;;;18.20;53.80;;;;;;20845102;28;20243;-70
2023/05/16 15:56:20;;;;;;;5.13;1.77;;;19.90;51.40;;;;;;20843505;28;20212;-67
2023/05/16 16:06:22;;;;;;;5.10;2.00;;;21.40;49.60;;;;;;20843021;28;20669;-72
2023/05/16 16:16:23;;;;;;;4.67;1.67;;;24.30;43.00;;;;;;20843118;28;20382;-74
2023/05/16 16:26:25;;;;;;;5.97;1.90;;;25.80;40.10;;;;;;20851760;28;20240;-73
2023/05/16 16:36:27;;;;;;;8.77;1.65;;;25.70;40.60;;;;;;20863201;28;20638;-72
2023/05/16 16:46:29;;;;;;;4.22;1.45;;;26.10;36.30;;;;;;20840688;28;20244;-70
2023/05/16 16:56:31;;;;;;;3.77;1.60;;;22.40;35.60;;;;;;20851848;28;20240;-71
2023/05/16 17:06:32;;;;;;;6.77;1.40;;;22.00;36.50;;;;;;20895068;28;20594;-73
2023/05/16 17:16:34;;;;;;;5.72;1.38;;;23.90;35.60;;;;;;20963862;28;20318;-70
2023/05/16 17:26:36;;;;;;;6.07;1.63;;;25.20;34.40;;;;;;20936033;28;20241;-69
2023/05/16 17:36:38;;;;;;;8.80;1.30;;;28.00;29.70;;;;;;20915297;28;20239;-73
2023/05/16 17:46:41;;;;;;;4.33;1.30;;;25.70;31.20;;;;;;20953091;28;20337;-71
2023/05/16 17:56:47;;;;;;;3.37;1.37;;;21.10;34.80;;;;;;20930127;28;20299;-72
2023/05/16 18:06:52;;;;;;;5.03;1.50;;;18.90;36.90;;;;;;20891806;28;20263;-74
2023/05/16 18:16:53;;;;;;;3.93;1.40;;;17.80;38.30;;;;;;20934185;28;20238;-72
2023/05/16 18:26:55;;;;;;;4.57;1.80;;;16.90;39.40;;;;;;20984631;28;20230;-71
2023/05/16 18:36:57;;;;;;;4.53;1.60;;;16.40;40.20;;;;;;20913301;28;20210;-73
2023/05/16 18:46:59;;;;;;;4.07;1.20;;;16.00;41.00;;;;;;20943486;28;20725;-74
2023/05/16 18:57:02;;;;;;;4.23;1.50;;;15.50;41.80;;;;;;20954335;28;20314;-72
2023/05/16 19:07:04;;;;;;;5.37;1.30;;;15.20;43.00;;;;;;20912198;28;20257;-73
2023/05/16 19:17:09;;;;;;;2.47;1.10;;;14.80;43.90;;;;;;20900224;28;20235;-73
2023/05/16 19:27:11;;;;;;;4.67;1.40;;;14.60;44.90;;;;;;20917077;28;20236;-72
2023/05/16 19:37:13;;;;;;;4.93;1.47;;;14.40;45.70;;;;;;20881800;28;20209;-71
2023/05/16 19:47:15;;;;;;;6.63;1.40;;;14.20;46.40;;;;;;20863785;28;20235;-71
2023/05/16 19:57:16;;;;;;;4.57;2.77;;;13.90;47.10;;;;;;20864820;28;20631;-72
2023/05/16 20:07:18;;;;;;;9.93;1.93;;;13.70;47.90;;;;;;20870740;28;20239;-73
2023/05/16 20:17:19;;;;;;;3.40;1.60;;;13.50;49.20;;;;;;20870747;28;20701;-73
2023/05/16 20:27:21;;;;;;;6.50;1.70;;;13.40;50.70;;;;;;20891915;28;20231;-73
2023/05/16 20:37:25;;;;;;;5.17;1.60;;;13.10;51.50;;;;;;20878305;28;20614;-72
2023/05/16 20:47:27;;;;;;;3.33;1.53;;;13.00;52.60;;;;;;20884862;28;20271;-71
2023/05/16 20:57:29;;;;;;;4.27;1.63;;;12.90;53.00;;;;;;20886915;28;20230;-72
2023/05/16 21:07:31;;;;;;;5.40;2.10;;;12.70;53.60;;;;;;20868733;28;20345;-72
2023/05/16 21:17:33;;;;;;;7.90;1.70;;;12.60;54.20;;;;;;20913134;28;20242;-72
2023/05/16 21:27:35;;;;;;;5.70;1.93;;;12.40;54.90;;;;;;20916094;28;20721;-72
2023/05/16 21:37:36;;;;;;;2.37;1.50;;;12.30;55.80;;;;;;20918966;28;20217;-73
2023/05/16 21:47:38;;;;;;;7.80;1.93;;;12.10;56.40;;;;;;20918296;28;20602;-72
2023/05/16 21:57:40;;;;;;;4.10;1.70;;;11.90;57.50;;;;;;20917708;28;20206;-72
2023/05/16 22:07:42;;;;;;;6.20;1.80;;;11.70;58.40;;;;;;20916482;28;20238;-73
2023/05/16 22:17:43;;;;;;;4.67;1.53;;;11.70;59.10;;;;;;20915580;28;20241;-73
2023/05/16 22:27:45;;;;;;;7.43;1.67;;;11.50;60.00;;;;;;20915495;28;20641;-71
2023/05/16 22:37:47;;;;;;;4.87;2.33;;;11.20;60.60;;;;;;20914120;28;20667;-72
2023/05/16 22:47:49;;;;;;;4.50;2.20;;;11.20;61.90;;;;;;20912479;28;20237;-72
2023/05/16 22:57:53;;;;;;;7.37;1.80;;;11.10;62.60;;;;;;20913217;28;20208;-72
2023/05/16 23:07:56;;;;;;;3.77;2.00;;;10.90;63.30;;;;;;20912568;28;20272;-71
2023/05/16 23:17:57;;;;;;;4.40;1.77;;;10.70;64.30;;;;;;20911820;28;20584;-71
2023/05/16 23:27:59;;;;;;;4.67;1.80;;;10.60;65.40;;;;;;20911982;28;20271;-72
2023/05/16 23:38:01;;;;;;;4.50;1.90;;;10.60;66.20;;;;;;20911323;28;20204;-72
2023/05/16 23:48:03;;;;;;;7.30;2.10;;;10.40;66.90;;;;;;20914336;28;20330;-71
2023/05/16 23:58:05;;;;;;;3.97;1.67;;;10.30;68.00;;;;;;20926894;28;20205;-72
